Flight Track Log - Related Links

Times and Time Zones

All times are in EDT time to prevent confusion due to time zone crossing. See the N227CH flight status page for this flight to view local times or setup timezone preferences in your user account.

Time Position Orientation Groundspeed Altitude Reporting Facility
EDT Latitude Longitude Course Direction KTS MPH feet Rate Location/Type
Thu 04:11:35 PM 38.1950 -78.9550 206° Southwest 158 182 6,800  Level Washington Center
Thu 04:12:36 PM 38.1550 -78.9692 196° South 153 176 8,200 1,513 Climbing Washington Center
Thu 04:13:34 PM 38.1192 -78.9808 194° South 153 176 9,800 1,412 Climbing Washington Center
Thu 04:14:35 PM 38.0733 -78.9839 183° South 153 176 11,000 1,240 Climbing Washington Center
Thu 04:15:35 PM 38.0275 -78.9819 178° South 161 185 12,300 1,140 Climbing Washington Center
Thu 04:16:00 PM 37.9531 -79.0669 206° Southwest  Level FlightAware Approximate
Thu 04:16:36 PM 37.9772 -78.9847 182° South 167 192 13,300  Level Washington Center
Thu 04:17:35 PM 37.9250 -78.9850 180° South 180 207 14,900 1,311 Climbing Washington Center
Thu 04:18:35 PM 37.8772 -78.9856 181° South 180 207 15,900 545 Climbing Washington Center
Thu 04:19:36 PM 37.8167 -78.9881 182° South 187 215 16,000 50 Climbing Washington Center
Thu 04:20:34 PM 37.7519 -78.9906 182° South 217 250 16,000  Level Washington Center
Thu 04:21:35 PM 37.6831 -78.9900 180° South 239 275 16,000  Level Washington Center
Thu 04:22:36 PM 37.6206 -78.9897 180° South 251 289 16,000  Level Washington Center
Thu 04:23:34 PM 37.5494 -78.9919 181° South 256 295 16,000  Level Washington Center
Thu 04:24:35 PM 37.4786 -78.9914 180° South 256 295 16,000  Level Washington Center
Thu 04:25:35 PM 37.4075 -78.9933 181° South 256 295 16,000  Level Washington Center
Thu 04:26:36 PM 37.3303 -78.9978 183° South 256 295 16,000  Level Washington Center
Thu 04:27:36 PM 37.2594 -78.9972 180° South 256 295 16,000  Level Washington Center
Thu 04:28:37 PM 37.1883 -78.9992 181° South 256 295 16,000  Level Washington Center
Thu 04:29:35 PM 37.1172 -79.0014 181° South 256 295 16,000 -305 Level Washington Center
Thu 04:30:35 PM 37.0464 -79.0033 181° South 256 295 15,400 -843 Descending Washington Center
Thu 04:31:36 PM 36.9775 -79.0056 181° South 267 307 14,300 -1,109 Descending Washington Center
Thu 04:32:34 PM 36.9003 -79.0072 181° South 279 321 13,200 -1,160 Descending Washington Center
Thu 04:33:35 PM 36.8208 -79.0117 183° South 279 321 12,000 -1,574 Descending Washington Center
Thu 04:34:36 PM 36.7456 -79.0136 181° South 279 321 10,000 -1,934 Descending Washington Center
Thu 04:35:36 PM 36.6664 -79.0125 179° South 274 315 8,100 -1,424 Descending Washington Center
Thu 04:36:34 PM 36.5961 -78.9939 168° South 264 304 7,200 -500 Descending Washington Center
Thu 04:37:36 PM 36.5297 -78.9756 167° South 244 281 7,100 -50 Descending Washington Center
Thu 04:38:34 PM 36.4656 -78.9600 169° South 248 285 7,100  Level Washington Center
Thu 04:39:34 PM 36.4056 -78.9392 164° South 238 274 7,100 -499 Level Washington Center
Thu 04:41:00 PM 36.3303 -78.9076 169° South  Level FlightAware Approximate
Thu 04:44:35 PM 36.1031 -78.9392 North 198 228 4,100  Level Washington Center
Thu 04:46:00 PM 36.0248 -78.8864 162° South  Level Estimated
Thu 04:46:36 PM 35.9992 -78.9219 North 182 209 4,000  Level Washington Center
Thu 04:47:37 PM 35.9628 -78.8819 138° Southeast 174 200 4,000  Level Washington Center
Thu 04:48:00 PM 35.9032 -78.7833 180° South  Level FlightAware Approximate
Thu 04:48:46 PM 35.9189 -78.8828 181° South 189 217 4,000  Level Washington Center
Thu 04:49:00 PM 35.8776 -78.7875 North  Level Estimated
Thu 04:49:47 PM 35.8783 -78.9194 216° Southwest 171 197 4,000  Level Washington Center
Thu 04:50:41 PM 35.8503 -78.9514 223° Southwest 159 183 4,000  Level Washington Center
Thu 04:51:41 PM 35.8156 -78.9961 226° Southwest 173 199 4,000  Level Washington Center
Thu 04:52:41 PM 35.7831 -79.0408 228° Southwest 175 201 4,000 -390 Level Washington Center
Thu 04:53:00 PM 35.8776 -78.7875 North  Level Estimated
Thu 04:53:44 PM 35.7469 -79.0650 209° Southwest 159 183 3,200  Level Washington Center
Thu 04:54:00 PM 35.8776 -78.7875 North  Level Estimated
Thu 04:55:03 PM 35.7106 -79.0197 135° Southeast 147 169 3,100  Level Washington Center
Thu 04:55:45 PM 35.7261 -78.9872 59° Northeast 155 178 3,100  Level Washington Center
Thu 04:56:44 PM 35.7586 -78.9478 45° Northeast 159 183 3,100 -137 Level Washington Center
Thu 04:57:56 PM 35.7908 -78.9081 45° Northeast 147 169 2,800 -250 Descending Washington Center

Login

Don't have an account? Register now (free) for customized features, flight alerts, and more!